首页
METAR-TAF:

METAR-TAF

机场 :

西沃萨古尔·拉姆古兰爵士国际机场

毛里求斯, 毛里求斯

纬度: 20-26S, 经度: 057-40E, 海拔: 55米

当前天气观测

该预报发布于12分钟前的00:00 UTC
风速5节,风向
温度 24°C
湿度 83%
气压 1015 hPa
能见度10公里或以上
散云层高于1600英尺
散云层高于5000英尺

METAR: FIMP 220000Z 01005KT 9999 SCT016 SCT050 24/21 Q1015

时间: 04:12 (00:12 UTC)

预报

该预报发布于1小时和2分钟前的23:10 UTC
预报有效从22日的 00点(UTC)到 23日的 06点(UTC)
风速10节,风向北转东北
能见度10公里或以上
散云层高于1700英尺
短暂存在
从 22日的 12点(UTC)到 23日的 00点(UTC)
能見度: 7000
少量云层高于1000英尺
多云层高于1600英尺
多云层高于5000英尺
小阵雨
成为
从 22日的 18点(UTC)到 22日的 20点(UTC)
风速5节,风向北转西北
几率 30% :
短暂存在
从 22日的 18点(UTC)到 22日的 20点(UTC)
少量云层高于800英尺
少量云层高于1200英尺, 积雨云.
多云层高于1500英尺
多云层高于4500英尺
成为
从 23日的 00点(UTC)到 23日的 02点(UTC)
风速5节,风向东北

TAF: FIMP 212310Z 2200/2306 02010KT 9999 SCT017 TEMPO 2212/2300 7000 -SHRA FEW010 BKN016 BKN050 BECMG 2218/2220 33005KT PROB30 TEMPO 2218/2220 SHRA/TSRA FEW008 FEW012CB BKN015 BKN045 BECMG 2300/2302 04005KT

超过4000个机场的气象观测和天气预报(METAR&TAF报告)。

可查询的气象台以黄色和红色小点在地图上表示。

将鼠标移到小点上方,可查看气象台名称。

然后点击查看天气观测和预报。

如需切换地图:点击带黑十字的绿色按钮放大地图;点击带横线的绿色按钮缩小地图;或者点击绿色箭头查看邻近地区的地图。


METAR-TAF: